AirNav   BOSE A20 Aviation Headset
 
 366 users online  

1J9 Fort Walton Beach Airport
Navarre, Florida, USA

GOING TO NAVARRE?


FAA INFORMATION EFFECTIVE 26 APRIL 2018

Location

FAA Identifier: 1J9
Lat/Long: 30-24-22.7000N / 086-49-45.1000W
30-24.378333N / 086-49.751667W
30.4063056 / -86.8291944
(estimated)
Elevation: 22 ft. / 6.7 m (surveyed)
Variation: 01E (1985)
From city: 2 miles E of NAVARRE, FL
Time zone: UTC -5 (UTC -6 during Standard Time)
Zip code: 32566

Airport Operations

Airport use: Open to the public
Activation date: 05/1969
Control tower: no
ARTCC: JACKSONVILLE CENTER
FSS: GAINESVILLE FLIGHT SERVICE STATION
NOTAMs facility: GNV (NOTAM-D service available)
Attendance: 1000-DUSK
Wind indicator: yes
Segmented circle: no

Airport Communications

CTAF/UNICOM: 122.7
WX ASOS at DTS (19 nm E): PHONE 850-654-7128
WX ASOS at PNS (19 nm W): PHONE 850-436-4799

Nearby radio navigation aids

VOR radial/distance  VOR name  Freq  Var
CEWr194/26.4CRESTVIEW VORTAC115.9003E
NUNr098/(26.5)SAUFLEY VOR108.8001E

 
NDB name  Hdg/Dist  Freq  Var  ID
PICKENS098/18.232602WPKZ .--. -.- --..

Airport Services

Airframe service: NONE
Powerplant service: NONE
Bottled oxygen: NONE
Bulk oxygen: NONE

Runway Information

Runway 18/36

Dimensions: 2100 x 65 ft. / 640 x 20 m
Surface: turf, in poor condition
RWY 18/36 BARE SPOTS SOFT & SANDY SOUTH OF RWYS MID POINT.
Gradient: N
Operational restrictions: ALL TKOFS RY 18; ALL LNDGS RY 36.
RUNWAY 18  RUNWAY 36
Latitude: 30-24.551792N30-24.205292N
Longitude: 086-49.750332W086-49.754368W
Elevation: 22.0 ft.2.0 ft.
Gradient: 1.0% UP
Traffic pattern: leftleft
Runway heading: 180 magnetic, 181 true000 magnetic, 001 true
Obstructions: 40 ft. tree, 280 ft. from runway, 85 ft. left of centerline, 7:1 slope to clear
RY 18 20:1 APPROACH TO THE DSPLCD THLD.
6 ft. brush, 170 ft. from runway, 40 ft. right of centerline, 32:1 slope to clear
BRUSH IN PRIMARY SFC & TRANSITION ZONES FY 36 +/- 100 FT FROM CNTRLN. ACFT PARKED 80 FT FROM CNTRLN.

Airport Ownership and Management from official FAA records

Ownership: Privately-owned
Owner: BOOMER AVIATION INC.
P.O. BOX 1075
FORT WALTON, FL 32549
Phone 850-244-1313
CONTACT PERSON; SANDY WILLIAMS, 850-244-1313
Manager: SANDY WILLIAMS
P.O. BOX 1075, P.O. BOX
FT WALTON BEACH, FL 32549
Phone (850) 244-1313

Airport Operational Statistics

Aircraft based on the field: 8
Single engine airplanes: 8
    
Aircraft operations: avg 22/day *
91% local general aviation
9% transient general aviation
* for 12-month period ending 15 March 2017

Additional Remarks

RY 18/36 SLOPES TO 3 FT ELEVATION AT SOUTH END.
BANNER TOWING.
RY 18/36 MARKED WITH WHITE CONES.
ARPT CLSD TO HELICOPTERS MORE THAN 2500 LBS.

Instrument Procedures

There are no published instrument procedures at 1J9.

Some nearby airports with instrument procedures:

KHRT - Hurlburt Field Airport (7 nm E)
2R4 - Peter Prince Field Airport (16 nm NW)
KVPS - Eglin Air Force Base/Destin-Fort Walton Beach Airport (16 nm E)
KDTS - Destin Executive Airport (19 nm E)
KPNS - Pensacola International Airport (19 nm W)
KNDZ - Whiting Field Naval Air Station South (20 nm NW)
 
Loc | Ops | Rwys | IFR | FBO | Links
Com | Nav | Svcs | Stats | Notes

AirNav Hotels Sweepstakes
 
Area around 1J9 (Fort Walton Beach Airport)
 
Road maps at: MapQuest Bing Google
 
Aerial photo
WARNING: Photo may not be current or correct
Aerial photo of 1J9 (Fort Walton Beach Airport)
Photo by Scott Jackson - PhotosFlorida.com
Photo taken 04-Oct-2007
looking north

Do you have a better or more recent aerial photo of Fort Walton Beach Airport that you would like to share? If so, please send us your photo.

 
Sectional chart

 
Airport distance calculator
Flying to Fort Walton Beach Airport? Find the distance to fly.

From to 1J9

Sunrise and sunset
Times for 21-May-2018
 Local
(UTC-5)
 Zulu
(UTC)
Morning civil twilight05:2410:24
Sunrise05:5110:51
Sunset19:3700:37
Evening civil twilight20:0401:04

Current date and time
Zulu (UTC)  21-May-2018 07:07:05
Local (UTC-5)  21-May-2018 02:07:05
 
METAR
KHRT 
8nm E 
210656Z 05005KT 10SM CLR 21/20 A3001 RMK AO2A SLP164 T02090199 $
2R4 
16nm NW 
SuperAWOS
210635Z AUTO 00000KT 22/21 A3002
KVPS 
17nm E 
210655Z 05004KT 10SM FEW015 FEW035 BKN180 BKN230 21/19 A3002 RMK AO2A SLP171 T02110192 $
KDTS 
19nm E 
210653Z AUTO 07006KT 10SM FEW013 22/20 A3002 RMK AO2 SLP164 T02220200 $
KPNS 
19nm W 
210653Z 08004KT 10SM FEW026 23/21 A3002 RMK AO2 SLP166 T02280206
TAF
KHRT 
8nm E 
210116Z 2101/2207 VRB06KT 8000 -SHRA SCT030 BKN050 QNH3000INS BECMG 2106/2107 VRB06KT 9999 NSW BKN030 OVC050 QNH3000INS BECMG 2116/2117 17008KT 8000 -SHRA BKN030 OVC050 QNH2999INS TEMPO 2120/2124 8000 -TSRA BKN030CB BECMG 2200/2201 17008KT 9999 NSW SCT030 BKN060 QNH2999INS TX28/2121Z TN22/2110Z
KVPS 
17nm E 
210612Z 2106/2207 07006KT 9999 FEW015 SCT050 BKN180 QNH3003INS BECMG 2111/2112 10005KT 9999 BKN015 OVC030 QNH3006INS BECMG 2114/2115 12007KT 9000 VCSH SCT015 BKN025 BKN140 QNH3003INS BECMG 2117/2118 14010KT 9000 -SHRA VCTS SCT015 BKN030CB BKN140 QNH2997INS TEMPO 2118/2123 15010G25KT 4800 TSRA BKN025CB BECMG 2122/2123 12008KT 9999 VCSH SCT025 BKN050 BKN150 QNH2997INS BECMG 2202/2203 12008KT 9999 NSW BKN015 BKN040 BKN150 QNH3001INS TX28/2118Z TN21/2110Z
KPNS 
19nm W 
210527Z 2106/2206 09006KT P6SM FEW025 SCT100 FM211200 05004KT P6SM OVC020 TEMPO 2118/2122 VRB15G25KT 2SM TSRA SCT010CB BKN025 OVC080
NOTAMs
Click for the latest NOTAMs
NOTAMs are issued by the DoD/FAA and will open in a separate window not controlled by AirNav.

 

 
 

Would you like to see your business listed on this page?

 If your business provides an interesting product or service to pilots, flight crews, aircraft, or users of the Fort Walton Beach Airport, you should consider listing it here.  To start the listing process, click on the button below
 
Add a business
 

Other Pages about Fort Walton Beach Airport

Update a link
 
Copyright © AirNav, LLC. All rights reserved. Privacy Policy  Contact